sensor_id;sensor_type;location;lat;lon;timestamp;pressure;altitude;pressure_sealevel;temperature;humidity
73453;BME280;61687;56.232;43.854;2024-03-23T00:53:53;100141.84;;;0.99;51.53
73453;BME280;61687;56.232;43.854;2024-03-23T00:56:19;100125.19;;;0.97;51.55
73453;BME280;61687;56.232;43.854;2024-03-23T00:58:45;100133.06;;;0.93;51.75
73453;BME280;61687;56.232;43.854;2024-03-23T01:01:11;100130.69;;;0.92;51.79
73453;BME280;61687;56.232;43.854;2024-03-23T01:03:37;100136.88;;;0.92;51.81
73453;BME280;61687;56.232;43.854;2024-03-23T01:06:03;100124.97;;;0.93;51.89
73453;BME280;61687;56.232;43.854;2024-03-23T01:08:32;100137.16;;;0.91;51.57
73453;BME280;61687;56.232;43.854;2024-03-23T01:10:59;100134.59;;;0.85;51.78
73453;BME280;61687;56.232;43.854;2024-03-23T01:13:26;100124.22;;;0.79;51.64
73453;BME280;61687;56.232;43.854;2024-03-23T01:15:54;100121.84;;;0.77;52.14
73453;BME280;61687;56.232;43.854;2024-03-23T01:18:21;100102.84;;;0.82;52.27
73453;BME280;61687;56.232;43.854;2024-03-23T01:20:47;100101.13;;;0.87;51.91
73453;BME280;61687;56.232;43.854;2024-03-23T01:23:13;100094.44;;;0.84;51.97
73453;BME280;61687;56.232;43.854;2024-03-23T01:25:39;100087.16;;;0.84;52.12
73453;BME280;61687;56.232;43.854;2024-03-23T01:28:06;100081.88;;;0.79;52.20
73453;BME280;61687;56.232;43.854;2024-03-23T01:30:32;100075.38;;;0.80;52.36
73453;BME280;61687;56.232;43.854;2024-03-23T01:32:58;100069.00;;;0.76;52.33
73453;BME280;61687;56.232;43.854;2024-03-23T01:35:24;100063.22;;;0.69;52.64
73453;BME280;61687;56.232;43.854;2024-03-23T01:37:50;100065.31;;;0.72;52.74
73453;BME280;61687;56.232;43.854;2024-03-23T01:40:18;100062.63;;;0.72;52.88
73453;BME280;61687;56.232;43.854;2024-03-23T01:43:04;100064.03;;;0.69;52.95
73453;BME280;61687;56.232;43.854;2024-03-23T01:45:31;100063.09;;;0.74;53.11
73453;BME280;61687;56.232;43.854;2024-03-23T01:47:58;100061.50;;;0.73;53.08
73453;BME280;61687;56.232;43.854;2024-03-23T01:50:24;100055.34;;;0.73;53.29
73453;BME280;61687;56.232;43.854;2024-03-23T01:52:50;100047.72;;;0.75;53.26
73453;BME280;61687;56.232;43.854;2024-03-23T01:55:16;100045.66;;;0.71;53.40
73453;BME280;61687;56.232;43.854;2024-03-23T01:57:43;100052.63;;;0.73;53.83
73453;BME280;61687;56.232;43.854;2024-03-23T02:00:10;100047.53;;;0.71;53.65
73453;BME280;61687;56.232;43.854;2024-03-23T02:02:43;100048.56;;;0.61;53.93
73453;BME280;61687;56.232;43.854;2024-03-23T02:05:11;100035.91;;;0.62;54.02
73453;BME280;61687;56.232;43.854;2024-03-23T02:07:38;100036.69;;;0.62;54.12
73453;BME280;61687;56.232;43.854;2024-03-23T02:10:06;100026.84;;;0.57;54.28
73453;BME280;61687;56.232;43.854;2024-03-23T02:12:33;100039.78;;;0.47;54.47
73453;BME280;61687;56.232;43.854;2024-03-23T02:14:59;100028.00;;;0.42;54.68
73453;BME280;61687;56.232;43.854;2024-03-23T02:17:26;100027.06;;;0.47;54.64
73453;BME280;61687;56.232;43.854;2024-03-23T02:19:52;100018.91;;;0.38;54.90
73453;BME280;61687;56.232;43.854;2024-03-23T02:22:17;100010.84;;;0.38;54.85
73453;BME280;61687;56.232;43.854;2024-03-23T02:24:43;100021.31;;;0.40;55.02
73453;BME280;61687;56.232;43.854;2024-03-23T02:27:09;100022.16;;;0.49;54.93
73453;BME280;61687;56.232;43.854;2024-03-23T02:29:35;100020.09;;;0.46;55.07
73453;BME280;61687;56.232;43.854;2024-03-23T02:32:01;100022.50;;;0.48;54.85
73453;BME280;61687;56.232;43.854;2024-03-23T02:34:27;100018.19;;;0.47;55.22
73453;BME280;61687;56.232;43.854;2024-03-23T02:36:53;100018.00;;;0.43;55.28
73453;BME280;61687;56.232;43.854;2024-03-23T02:39:18;100015.81;;;0.45;55.27
73453;BME280;61687;56.232;43.854;2024-03-23T02:41:44;100009.00;;;0.48;55.30
73453;BME280;61687;56.232;43.854;2024-03-23T02:44:10;100004.59;;;0.52;55.37
73453;BME280;61687;56.232;43.854;2024-03-23T02:46:38;99999.41;;;0.55;55.46
73453;BME280;61687;56.232;43.854;2024-03-23T02:49:04;99993.88;;;0.61;55.35
73453;BME280;61687;56.232;43.854;2024-03-23T02:51:30;99989.88;;;0.58;55.50
73453;BME280;61687;56.232;43.854;2024-03-23T02:53:56;99988.28;;;0.57;55.70
73453;BME280;61687;56.232;43.854;2024-03-23T02:56:23;99992.69;;;0.53;55.82
73453;BME280;61687;56.232;43.854;2024-03-23T02:58:48;99984.81;;;0.56;55.99
73453;BME280;61687;56.232;43.854;2024-03-23T03:01:14;99983.56;;;0.63;55.87
73453;BME280;61687;56.232;43.854;2024-03-23T03:03:40;99972.97;;;0.66;56.00
73453;BME280;61687;56.232;43.854;2024-03-23T03:06:06;99977.19;;;0.59;56.31
73453;BME280;61687;56.232;43.854;2024-03-23T03:08:32;99974.50;;;0.59;56.48
73453;BME280;61687;56.232;43.854;2024-03-23T03:10:58;99970.03;;;0.54;56.68
73453;BME280;61687;56.232;43.854;2024-03-23T03:13:24;99969.13;;;0.59;56.93
73453;BME280;61687;56.232;43.854;2024-03-23T03:15:50;99971.81;;;0.59;57.03
73453;BME280;61687;56.232;43.854;2024-03-23T03:18:16;99962.91;;;0.58;57.00
73453;BME280;61687;56.232;43.854;2024-03-23T03:20:41;99952.78;;;0.64;57.04
73453;BME280;61687;56.232;43.854;2024-03-23T03:23:07;99955.97;;;0.66;57.23
73453;BME280;61687;56.232;43.854;2024-03-23T03:25:34;99953.13;;;0.71;57.28
73453;BME280;61687;56.232;43.854;2024-03-23T03:28:00;99939.66;;;0.71;57.27
73453;BME280;61687;56.232;43.854;2024-03-23T03:30:26;99950.34;;;0.76;57.26
73453;BME280;61687;56.232;43.854;2024-03-23T03:32:53;99956.38;;;0.82;57.16
73453;BME280;61687;56.232;43.854;2024-03-23T03:35:19;99947.84;;;0.89;57.13
73453;BME280;61687;56.232;43.854;2024-03-23T03:37:45;99946.44;;;0.91;57.40
73453;BME280;61687;56.232;43.854;2024-03-23T03:40:12;99939.47;;;0.99;57.23
73453;BME280;61687;56.232;43.854;2024-03-23T03:42:41;99937.13;;;1.06;57.23
73453;BME280;61687;56.232;43.854;2024-03-23T03:45:07;99929.31;;;1.05;57.25
73453;BME280;61687;56.232;43.854;2024-03-23T03:47:33;99920.44;;;1.04;57.59
73453;BME280;61687;56.232;43.854;2024-03-23T03:49:59;99918.06;;;1.11;57.60
73453;BME280;61687;56.232;43.854;2024-03-23T03:52:25;99926.66;;;1.13;57.67
73453;BME280;61687;56.232;43.854;2024-03-23T03:55:01;99921.63;;;1.21;57.62
73453;BME280;61687;56.232;43.854;2024-03-23T03:57:30;99924.81;;;1.32;57.28
73453;BME280;61687;56.232;43.854;2024-03-23T03:59:56;99914.03;;;1.40;57.06
73453;BME280;61687;56.232;43.854;2024-03-23T04:02:22;99913.22;;;1.40;57.38
73453;BME280;61687;56.232;43.854;2024-03-23T04:04:47;99908.63;;;1.40;57.26
73453;BME280;61687;56.232;43.854;2024-03-23T04:07:13;99914.03;;;1.40;57.48
73453;BME280;61687;56.232;43.854;2024-03-23T04:09:39;99912.78;;;1.55;57.31
73453;BME280;61687;56.232;43.854;2024-03-23T04:12:05;99920.88;;;1.55;57.25
73453;BME280;61687;56.232;43.854;2024-03-23T04:14:31;99920.56;;;1.66;57.13
73453;BME280;61687;56.232;43.854;2024-03-23T04:16:57;99922.63;;;1.78;56.97
73453;BME280;61687;56.232;43.854;2024-03-23T04:19:23;99916.63;;;1.81;57.01
73453;BME280;61687;56.232;43.854;2024-03-23T04:21:49;99905.47;;;1.82;57.09
73453;BME280;61687;56.232;43.854;2024-03-23T04:24:15;99907.53;;;1.85;57.13
73453;BME280;61687;56.232;43.854;2024-03-23T04:26:44;99904.66;;;1.91;56.94
73453;BME280;61687;56.232;43.854;2024-03-23T04:29:10;99892.44;;;1.93;56.89
73453;BME280;61687;56.232;43.854;2024-03-23T04:31:35;99889.56;;;1.98;56.80
73453;BME280;61687;56.232;43.854;2024-03-23T04:34:01;99895.63;;;1.95;56.94
73453;BME280;61687;56.232;43.854;2024-03-23T04:36:27;99899.25;;;1.91;57.20
73453;BME280;61687;56.232;43.854;2024-03-23T04:38:53;99892.44;;;1.84;57.59
73453;BME280;61687;56.232;43.854;2024-03-23T04:41:19;99890.22;;;1.78;57.72
73453;BME280;61687;56.232;43.854;2024-03-23T04:43:45;99898.00;;;1.79;57.73
73453;BME280;61687;56.232;43.854;2024-03-23T04:46:11;99888.31;;;1.78;57.94
73453;BME280;61687;56.232;43.854;2024-03-23T04:48:37;99894.84;;;1.86;57.80
73453;BME280;61687;56.232;43.854;2024-03-23T04:51:03;99882.91;;;1.87;58.04
73453;BME280;61687;56.232;43.854;2024-03-23T04:53:29;99889.91;;;1.97;57.85
73453;BME280;61687;56.232;43.854;2024-03-23T04:55:56;99873.03;;;2.00;57.81
73453;BME280;61687;56.232;43.854;2024-03-23T04:58:22;99873.34;;;2.16;57.53
73453;BME280;61687;56.232;43.854;2024-03-23T05:00:55;99870.94;;;2.23;57.76
73453;BME280;61687;56.232;43.854;2024-03-23T05:03:21;99862.84;;;2.23;57.76
73453;BME280;61687;56.232;43.854;2024-03-23T05:05:50;99865.16;;;2.42;57.46
73453;BME280;61687;56.232;43.854;2024-03-23T05:08:16;99859.91;;;2.46;57.18
73453;BME280;61687;56.232;43.854;2024-03-23T05:10:42;99857.63;;;2.66;56.88
73453;BME280;61687;56.232;43.854;2024-03-23T05:13:09;99844.63;;;2.80;56.32
73453;BME280;61687;56.232;43.854;2024-03-23T05:15:35;99853.19;;;2.91;56.01
73453;BME280;61687;56.232;43.854;2024-03-23T05:18:01;99849.22;;;2.89;56.13
73453;BME280;61687;56.232;43.854;2024-03-23T05:20:27;99844.28;;;2.91;56.49
73453;BME280;61687;56.232;43.854;2024-03-23T05:22:55;99838.63;;;3.05;55.92
73453;BME280;61687;56.232;43.854;2024-03-23T05:25:20;99839.50;;;3.18;55.95
73453;BME280;61687;56.232;43.854;2024-03-23T05:27:46;99847.69;;;3.30;55.47
73453;BME280;61687;56.232;43.854;2024-03-23T05:30:12;99838.72;;;3.38;55.31
73453;BME280;61687;56.232;43.854;2024-03-23T05:32:38;99836.91;;;3.42;55.30
73453;BME280;61687;56.232;43.854;2024-03-23T05:35:09;99829.59;;;3.43;55.84
73453;BME280;61687;56.232;43.854;2024-03-23T05:37:35;99831.44;;;3.51;55.49
73453;BME280;61687;56.232;43.854;2024-03-23T05:40:02;99827.06;;;3.59;55.17
73453;BME280;61687;56.232;43.854;2024-03-23T05:42:30;99822.72;;;3.67;55.00
73453;BME280;61687;56.232;43.854;2024-03-23T05:44:55;99821.06;;;3.75;54.69
73453;BME280;61687;56.232;43.854;2024-03-23T05:47:21;99820.47;;;3.69;54.88
73453;BME280;61687;56.232;43.854;2024-03-23T05:49:47;99823.03;;;3.65;54.98
73453;BME280;61687;56.232;43.854;2024-03-23T05:52:13;99817.22;;;3.76;54.99
73453;BME280;61687;56.232;43.854;2024-03-23T05:54:40;99812.41;;;3.94;54.72
73453;BME280;61687;56.232;43.854;2024-03-23T05:57:06;99810.31;;;4.24;54.34
73453;BME280;61687;56.232;43.854;2024-03-23T05:59:34;99806.97;;;4.40;53.69
73453;BME280;61687;56.232;43.854;2024-03-23T06:02:00;99792.50;;;4.36;53.37
73453;BME280;61687;56.232;43.854;2024-03-23T06:04:26;99792.94;;;4.25;53.82
73453;BME280;61687;56.232;43.854;2024-03-23T06:06:52;99793.38;;;4.15;54.03
73453;BME280;61687;56.232;43.854;2024-03-23T06:09:18;99793.25;;;4.11;54.59
73453;BME280;61687;56.232;43.854;2024-03-23T06:11:45;99784.91;;;4.29;54.42
73453;BME280;61687;56.232;43.854;2024-03-23T06:14:11;99785.91;;;4.24;53.78
73453;BME280;61687;56.232;43.854;2024-03-23T06:16:37;99791.34;;;4.24;54.58
73453;BME280;61687;56.232;43.854;2024-03-23T06:19:03;99781.41;;;4.28;54.15
73453;BME280;61687;56.232;43.854;2024-03-23T06:21:30;99784.69;;;4.34;54.38
73453;BME280;61687;56.232;43.854;2024-03-23T06:23:56;99785.81;;;4.46;54.04
73453;BME280;61687;56.232;43.854;2024-03-23T06:26:22;99773.25;;;4.53;53.81
73453;BME280;61687;56.232;43.854;2024-03-23T06:28:48;99776.88;;;4.70;53.61
73453;BME280;61687;56.232;43.854;2024-03-23T06:31:13;99780.38;;;4.83;53.20
73453;BME280;61687;56.232;43.854;2024-03-23T06:33:39;99779.78;;;5.02;53.06
73453;BME280;61687;56.232;43.854;2024-03-23T06:36:11;99771.81;;;5.22;52.33
73453;BME280;61687;56.232;43.854;2024-03-23T06:38:38;99771.56;;;5.27;52.18
73453;BME280;61687;56.232;43.854;2024-03-23T06:41:05;99771.22;;;5.28;52.08
73453;BME280;61687;56.232;43.854;2024-03-23T06:43:31;99780.03;;;5.38;51.90
73453;BME280;61687;56.232;43.854;2024-03-23T06:45:57;99776.94;;;5.39;52.01
73453;BME280;61687;56.232;43.854;2024-03-23T06:48:22;99769.00;;;5.47;51.62
73453;BME280;61687;56.232;43.854;2024-03-23T06:50:48;99765.75;;;5.41;51.74
73453;BME280;61687;56.232;43.854;2024-03-23T06:53:15;99762.22;;;5.40;51.72
73453;BME280;61687;56.232;43.854;2024-03-23T06:55:41;99767.00;;;5.43;52.10
73453;BME280;61687;56.232;43.854;2024-03-23T06:58:07;99760.09;;;5.62;52.09
73453;BME280;61687;56.232;43.854;2024-03-23T07:00:34;99750.59;;;5.84;51.71
73453;BME280;61687;56.232;43.854;2024-03-23T07:03:00;99745.28;;;6.04;50.96
73453;BME280;61687;56.232;43.854;2024-03-23T07:05:26;99748.59;;;5.97;50.90
73453;BME280;61687;56.232;43.854;2024-03-23T07:07:52;99756.03;;;6.00;50.95
73453;BME280;61687;56.232;43.854;2024-03-23T07:10:17;99753.25;;;5.97;50.92
73453;BME280;61687;56.232;43.854;2024-03-23T07:12:44;99746.06;;;6.05;51.03
73453;BME280;61687;56.232;43.854;2024-03-23T07:15:10;99740.00;;;6.11;50.68
73453;BME280;61687;56.232;43.854;2024-03-23T07:17:35;99728.63;;;6.22;50.48
73453;BME280;61687;56.232;43.854;2024-03-23T07:20:02;99724.56;;;6.32;50.55
73453;BME280;61687;56.232;43.854;2024-03-23T07:22:30;99734.72;;;6.51;50.14
73453;BME280;61687;56.232;43.854;2024-03-23T07:25:00;99728.56;;;6.70;49.93
73453;BME280;61687;56.232;43.854;2024-03-23T07:27:27;99732.44;;;6.88;49.49
73453;BME280;61687;56.232;43.854;2024-03-23T07:29:53;99727.91;;;6.96;48.96
73453;BME280;61687;56.232;43.854;2024-03-23T07:32:20;99721.38;;;6.81;48.96
73453;BME280;61687;56.232;43.854;2024-03-23T07:34:46;99714.41;;;6.64;49.12
73453;BME280;61687;56.232;43.854;2024-03-23T07:37:13;99717.06;;;6.61;49.35
73453;BME280;61687;56.232;43.854;2024-03-23T07:39:41;99719.06;;;6.64;49.40
73453;BME280;61687;56.232;43.854;2024-03-23T07:42:07;99716.13;;;6.72;49.20
73453;BME280;61687;56.232;43.854;2024-03-23T07:44:33;99708.41;;;6.75;49.18
73453;BME280;61687;56.232;43.854;2024-03-23T07:47:00;99698.66;;;6.73;49.18
73453;BME280;61687;56.232;43.854;2024-03-23T07:49:26;99689.44;;;6.78;49.01
73453;BME280;61687;56.232;43.854;2024-03-23T07:51:52;99677.91;;;6.85;48.54
73453;BME280;61687;56.232;43.854;2024-03-23T07:54:18;99672.06;;;6.86;48.72
73453;BME280;61687;56.232;43.854;2024-03-23T07:56:44;99679.41;;;7.02;48.35
73453;BME280;61687;56.232;43.854;2024-03-23T07:59:10;99674.44;;;7.27;48.18
73453;BME280;61687;56.232;43.854;2024-03-23T08:01:36;99659.94;;;7.43;47.68
73453;BME280;61687;56.232;43.854;2024-03-23T08:04:02;99668.88;;;7.43;47.56
73453;BME280;61687;56.232;43.854;2024-03-23T08:06:28;99667.03;;;7.28;47.64
73453;BME280;61687;56.232;43.854;2024-03-23T08:08:55;99661.78;;;7.39;47.86
73453;BME280;61687;56.232;43.854;2024-03-23T08:11:31;99653.53;;;7.55;47.50
73453;BME280;61687;56.232;43.854;2024-03-23T08:13:58;99647.88;;;7.67;47.31
73453;BME280;61687;56.232;43.854;2024-03-23T08:16:24;99650.72;;;7.74;47.51
73453;BME280;61687;56.232;43.854;2024-03-23T08:18:54;99643.44;;;7.82;47.35
73453;BME280;61687;56.232;43.854;2024-03-23T08:21:23;99638.53;;;7.92;46.99
73453;BME280;61687;56.232;43.854;2024-03-23T08:23:51;99628.94;;;8.01;46.71
73453;BME280;61687;56.232;43.854;2024-03-23T08:26:16;99626.56;;;8.00;46.29
73453;BME280;61687;56.232;43.854;2024-03-23T08:28:45;99623.00;;;7.96;46.52
73453;BME280;61687;56.232;43.854;2024-03-23T08:31:12;99606.69;;;7.99;46.89
73453;BME280;61687;56.232;43.854;2024-03-23T08:33:39;99612.34;;;8.14;46.62
73453;BME280;61687;56.232;43.854;2024-03-23T08:36:07;99604.69;;;8.23;46.44
73453;BME280;61687;56.232;43.854;2024-03-23T08:38:33;99599.25;;;8.27;46.32
73453;BME280;61687;56.232;43.854;2024-03-23T08:41:01;99601.41;;;8.41;46.11
73453;BME280;61687;56.232;43.854;2024-03-23T08:43:29;99598.47;;;8.53;45.88
73453;BME280;61687;56.232;43.854;2024-03-23T08:46:08;99589.38;;;8.76;45.71
73453;BME280;61687;56.232;43.854;2024-03-23T08:48:41;99582.09;;;8.87;45.56
73453;BME280;61687;56.232;43.854;2024-03-23T08:51:13;99582.91;;;8.92;45.33
73453;BME280;61687;56.232;43.854;2024-03-23T08:53:40;99575.94;;;8.98;45.50
73453;BME280;61687;56.232;43.854;2024-03-23T08:56:07;99572.03;;;8.95;45.20
73453;BME280;61687;56.232;43.854;2024-03-23T08:58:35;99568.44;;;8.91;45.41
73453;BME280;61687;56.232;43.854;2024-03-23T09:01:12;99566.63;;;9.02;45.41
73453;BME280;61687;56.232;43.854;2024-03-23T09:03:39;99560.59;;;9.27;44.94
73453;BME280;61687;56.232;43.854;2024-03-23T09:06:11;99558.72;;;9.35;44.47
73453;BME280;61687;56.232;43.854;2024-03-23T09:08:37;99558.75;;;9.39;44.58
73453;BME280;61687;56.232;43.854;2024-03-23T09:11:10;99542.28;;;9.31;44.00
73453;BME280;61687;56.232;43.854;2024-03-23T09:13:37;99535.22;;;9.27;44.54
73453;BME280;61687;56.232;43.854;2024-03-23T09:16:04;99533.31;;;9.31;44.39
73453;BME280;61687;56.232;43.854;2024-03-23T09:18:32;99528.03;;;9.56;44.30
73453;BME280;61687;56.232;43.854;2024-03-23T09:20:58;99517.63;;;9.84;43.89
73453;BME280;61687;56.232;43.854;2024-03-23T09:23:24;99518.94;;;10.05;43.15
73453;BME280;61687;56.232;43.854;2024-03-23T09:25:50;99515.13;;;10.24;42.85
73453;BME280;61687;56.232;43.854;2024-03-23T09:28:16;99511.31;;;10.43;42.23
73453;BME280;61687;56.232;43.854;2024-03-23T09:30:43;99508.22;;;10.55;42.23
73453;BME280;61687;56.232;43.854;2024-03-23T09:33:10;99489.84;;;10.67;41.60
73453;BME280;61687;56.232;43.854;2024-03-23T09:35:40;99489.41;;;10.54;41.76
73453;BME280;61687;56.232;43.854;2024-03-23T09:38:07;99499.59;;;10.50;42.18
73453;BME280;61687;56.232;43.854;2024-03-23T09:40:33;99490.19;;;10.47;42.29
73453;BME280;61687;56.232;43.854;2024-03-23T09:42:59;99489.72;;;10.34;41.96
73453;BME280;61687;56.232;43.854;2024-03-23T09:45:29;99495.84;;;10.06;42.90
73453;BME280;61687;56.232;43.854;2024-03-23T09:47:55;99479.72;;;9.82;43.44
73453;BME280;61687;56.232;43.854;2024-03-23T09:50:22;99483.91;;;9.62;43.78
73453;BME280;61687;56.232;43.854;2024-03-23T09:52:48;99479.06;;;9.40;44.52
73453;BME280;61687;56.232;43.854;2024-03-23T09:55:15;99473.38;;;9.11;45.10
73453;BME280;61687;56.232;43.854;2024-03-23T09:57:41;99461.78;;;8.77;46.07
73453;BME280;61687;56.232;43.854;2024-03-23T10:00:08;99458.13;;;8.65;46.50
73453;BME280;61687;56.232;43.854;2024-03-23T10:02:34;99454.63;;;8.65;46.64
73453;BME280;61687;56.232;43.854;2024-03-23T10:05:01;99450.66;;;8.58;46.94
73453;BME280;61687;56.232;43.854;2024-03-23T10:07:30;99435.09;;;8.63;47.11
73453;BME280;61687;56.232;43.854;2024-03-23T10:09:56;99435.50;;;8.65;47.51
73453;BME280;61687;56.232;43.854;2024-03-23T10:12:23;99437.00;;;8.58;47.90
73453;BME280;61687;56.232;43.854;2024-03-23T10:14:50;99432.94;;;8.45;48.62
73453;BME280;61687;56.232;43.854;2024-03-23T10:17:21;99434.13;;;8.44;48.87
73453;BME280;61687;56.232;43.854;2024-03-23T10:19:52;99427.91;;;8.47;49.17
73453;BME280;61687;56.232;43.854;2024-03-23T10:22:19;99422.38;;;8.40;49.18
73453;BME280;61687;56.232;43.854;2024-03-23T10:24:46;99424.94;;;8.25;50.12
73453;BME280;61687;56.232;43.854;2024-03-23T10:27:23;99413.63;;;8.23;50.22
73453;BME280;61687;56.232;43.854;2024-03-23T10:29:50;99414.50;;;8.35;50.15
73453;BME280;61687;56.232;43.854;2024-03-23T10:32:17;99416.91;;;8.40;50.02
73453;BME280;61687;56.232;43.854;2024-03-23T10:34:44;99402.81;;;8.38;50.07
73453;BME280;61687;56.232;43.854;2024-03-23T10:37:10;99396.66;;;8.41;49.95
73453;BME280;61687;56.232;43.854;2024-03-23T10:39:41;99400.19;;;8.45;49.79
73453;BME280;61687;56.232;43.854;2024-03-23T10:42:08;99390.78;;;8.39;49.78
73453;BME280;61687;56.232;43.854;2024-03-23T10:44:36;99382.53;;;8.35;49.61
73453;BME280;61687;56.232;43.854;2024-03-23T10:47:03;99382.72;;;8.53;49.14
73453;BME280;61687;56.232;43.854;2024-03-23T10:49:30;99363.75;;;8.68;48.93
73453;BME280;61687;56.232;43.854;2024-03-23T10:51:59;99384.16;;;8.81;48.44
73453;BME280;61687;56.232;43.854;2024-03-23T10:54:26;99377.53;;;8.86;48.30
73453;BME280;61687;56.232;43.854;2024-03-23T10:57:15;99375.88;;;8.74;48.63
73453;BME280;61687;56.232;43.854;2024-03-23T10:59:44;99369.22;;;8.68;48.65
73453;BME280;61687;56.232;43.854;2024-03-23T11:02:20;99363.31;;;8.62;48.90
73453;BME280;61687;56.232;43.854;2024-03-23T11:04:47;99362.91;;;8.60;48.98
73453;BME280;61687;56.232;43.854;2024-03-23T11:07:30;99368.66;;;8.51;49.46
73453;BME280;61687;56.232;43.854;2024-03-23T11:09:58;99357.31;;;8.49;49.80
73453;BME280;61687;56.232;43.854;2024-03-23T11:14:56;99348.34;;;8.07;51.84
73453;BME280;61687;56.232;43.854;2024-03-23T11:17:25;99354.06;;;7.95;52.60
73453;BME280;61687;56.232;43.854;2024-03-23T11:20:05;99350.09;;;7.88;52.82
73453;BME280;61687;56.232;43.854;2024-03-23T11:22:42;99346.41;;;7.73;53.84
73453;BME280;61687;56.232;43.854;2024-03-23T11:25:23;99338.81;;;7.56;54.06
73453;BME280;61687;56.232;43.854;2024-03-23T11:28:11;99351.19;;;7.50;54.47
73453;BME280;61687;56.232;43.854;2024-03-23T11:30:37;99343.38;;;7.48;54.78
73453;BME280;61687;56.232;43.854;2024-03-23T11:33:06;99333.19;;;7.41;55.91
73453;BME280;61687;56.232;43.854;2024-03-23T11:35:36;99344.47;;;7.13;57.50
73453;BME280;61687;56.232;43.854;2024-03-23T11:38:12;99338.88;;;7.02;58.43
73453;BME280;61687;56.232;43.854;2024-03-23T11:40:39;99352.97;;;7.08;58.48
73453;BME280;61687;56.232;43.854;2024-03-23T11:43:08;99334.38;;;7.13;58.62
73453;BME280;61687;56.232;43.854;2024-03-23T11:50:40;99338.66;;;6.87;59.87
73453;BME280;61687;56.232;43.854;2024-03-23T11:53:24;99330.06;;;6.85;60.14
73453;BME280;61687;56.232;43.854;2024-03-23T11:55:56;99329.22;;;6.81;60.46
73453;BME280;61687;56.232;43.854;2024-03-23T11:58:24;99331.06;;;6.73;60.93
73453;BME280;61687;56.232;43.854;2024-03-23T12:03:29;99327.31;;;6.35;62.64
73453;BME280;61687;56.232;43.854;2024-03-23T12:05:57;99328.13;;;6.36;63.19
73453;BME280;61687;56.232;43.854;2024-03-23T12:08:24;99318.31;;;6.31;63.84
73453;BME280;61687;56.232;43.854;2024-03-23T12:10:52;99325.88;;;6.18;64.38
73453;BME280;61687;56.232;43.854;2024-03-23T12:13:21;99319.03;;;6.05;65.43
73453;BME280;61687;56.232;43.854;2024-03-23T12:15:50;99316.88;;;5.94;65.62
73453;BME280;61687;56.232;43.854;2024-03-23T12:18:17;99315.53;;;5.84;66.22
73453;BME280;61687;56.232;43.854;2024-03-23T12:20:43;99321.19;;;5.76;66.77
73453;BME280;61687;56.232;43.854;2024-03-23T12:23:12;99311.97;;;5.61;67.22
73453;BME280;61687;56.232;43.854;2024-03-23T12:25:42;99317.72;;;5.55;67.83
73453;BME280;61687;56.232;43.854;2024-03-23T12:28:07;99306.63;;;5.44;68.03
73453;BME280;61687;56.232;43.854;2024-03-23T12:30:35;99304.25;;;5.43;68.25
73453;BME280;61687;56.232;43.854;2024-03-23T12:33:03;99304.75;;;5.29;69.35
73453;BME280;61687;56.232;43.854;2024-03-23T12:35:29;99305.75;;;5.21;69.36
73453;BME280;61687;56.232;43.854;2024-03-23T12:37:55;99298.78;;;5.04;70.57
73453;BME280;61687;56.232;43.854;2024-03-23T12:40:21;99296.25;;;4.95;70.98
73453;BME280;61687;56.232;43.854;2024-03-23T12:42:46;99286.66;;;4.81;71.48
73453;BME280;61687;56.232;43.854;2024-03-23T12:45:12;99288.00;;;4.71;72.01
73453;BME280;61687;56.232;43.854;2024-03-23T12:47:38;99288.19;;;4.63;72.15
73453;BME280;61687;56.232;43.854;2024-03-23T12:50:04;99277.84;;;4.52;72.63
73453;BME280;61687;56.232;43.854;2024-03-23T12:52:32;99299.06;;;4.47;72.98
73453;BME280;61687;56.232;43.854;2024-03-23T12:54:58;99284.34;;;4.48;73.10
73453;BME280;61687;56.232;43.854;2024-03-23T12:57:25;99275.75;;;4.46;73.41
73453;BME280;61687;56.232;43.854;2024-03-23T12:59:53;99283.72;;;4.38;73.50
73453;BME280;61687;56.232;43.854;2024-03-23T13:02:20;99270.97;;;4.39;73.34
73453;BME280;61687;56.232;43.854;2024-03-23T13:04:49;99286.00;;;4.36;73.37
73453;BME280;61687;56.232;43.854;2024-03-23T13:07:16;99277.34;;;4.30;73.59
73453;BME280;61687;56.232;43.854;2024-03-23T13:09:42;99278.03;;;4.27;73.73
73453;BME280;61687;56.232;43.854;2024-03-23T13:12:09;99263.34;;;4.28;73.62
73453;BME280;61687;56.232;43.854;2024-03-23T13:14:35;99260.28;;;4.30;73.59
73453;BME280;61687;56.232;43.854;2024-03-23T13:17:01;99256.25;;;4.24;74.03
73453;BME280;61687;56.232;43.854;2024-03-23T13:19:28;99266.75;;;4.25;73.84
73453;BME280;61687;56.232;43.854;2024-03-23T13:21:57;99265.28;;;4.28;73.54
73453;BME280;61687;56.232;43.854;2024-03-23T13:24:28;99269.13;;;4.27;73.61
73453;BME280;61687;56.232;43.854;2024-03-23T13:26:55;99268.34;;;4.26;73.64
73453;BME280;61687;56.232;43.854;2024-03-23T13:29:22;99266.94;;;4.17;73.98
73453;BME280;61687;56.232;43.854;2024-03-23T13:31:50;99262.91;;;4.10;74.30
73453;BME280;61687;56.232;43.854;2024-03-23T13:34:17;99261.78;;;4.11;74.24
73453;BME280;61687;56.232;43.854;2024-03-23T13:36:44;99271.75;;;4.07;74.44
73453;BME280;61687;56.232;43.854;2024-03-23T13:39:11;99271.66;;;4.04;74.59
73453;BME280;61687;56.232;43.854;2024-03-23T13:41:44;99259.56;;;4.01;74.60
73453;BME280;61687;56.232;43.854;2024-03-23T13:44:12;99261.34;;;3.93;74.71
73453;BME280;61687;56.232;43.854;2024-03-23T13:46:39;99267.59;;;3.81;75.09
73453;BME280;61687;56.232;43.854;2024-03-23T13:49:06;99263.41;;;3.84;75.30
73453;BME280;61687;56.232;43.854;2024-03-23T13:51:32;99260.59;;;3.80;75.28
73453;BME280;61687;56.232;43.854;2024-03-23T13:53:59;99262.00;;;3.74;75.29
73453;BME280;61687;56.232;43.854;2024-03-23T13:56:28;99267.16;;;3.79;75.31
73453;BME280;61687;56.232;43.854;2024-03-23T13:58:55;99262.00;;;3.90;75.24
73453;BME280;61687;56.232;43.854;2024-03-23T14:01:22;99265.63;;;3.94;74.98